createdAt,value
2023-02-01T00:01:19.089Z,72.16
2023-02-01T00:03:46.782Z,72.10
2023-02-01T00:06:14.537Z,72.26
2023-02-01T00:08:42.350Z,72.24
2023-02-01T00:11:12.577Z,72.26
2023-02-01T00:13:42.770Z,72.09
2023-02-01T00:16:18.358Z,71.99
2023-02-01T00:18:47.700Z,71.83
2023-02-01T00:21:17.200Z,71.71
2023-02-01T00:23:45.681Z,71.83
2023-02-01T00:26:29.595Z,71.78
2023-02-01T00:28:57.399Z,71.77
2023-02-01T00:31:26.994Z,71.77
2023-02-01T00:33:56.090Z,71.71
2023-02-01T00:36:23.823Z,71.83
2023-02-01T00:38:52.347Z,71.72
2023-02-01T00:41:22.270Z,71.77
2023-02-01T00:43:51.024Z,71.51
2023-02-01T00:46:20.610Z,71.44
2023-02-01T00:48:48.340Z,71.65
2023-02-01T00:51:22.965Z,71.56
2023-02-01T00:53:50.910Z,71.36
2023-02-01T00:56:19.307Z,71.23
2023-02-01T00:58:47.327Z,71.19
2023-02-01T01:01:33.139Z,71.18
2023-02-01T01:04:01.898Z,71.14
2023-02-01T01:06:34.833Z,71.11
2023-02-01T01:09:06.361Z,70.85
2023-02-01T01:11:37.094Z,70.83
2023-02-01T01:14:06.172Z,70.53
2023-02-01T01:16:35.503Z,70.28
2023-02-01T01:19:04.645Z,70.48
2023-02-01T01:21:33.500Z,70.45
2023-02-01T01:24:01.885Z,70.56
2023-02-01T01:26:31.414Z,70.67
2023-02-01T01:29:01.305Z,70.86
2023-02-01T01:31:29.894Z,70.93
2023-02-01T01:33:59.773Z,70.89
2023-02-01T01:36:29.362Z,70.75
2023-02-01T01:38:57.105Z,70.83
2023-02-01T01:41:28.359Z,70.68
2023-02-01T01:44:06.941Z,70.81
2023-02-01T01:46:38.145Z,70.92
2023-02-01T01:49:19.025Z,70.71
2023-02-01T01:51:52.374Z,70.70
2023-02-01T01:54:25.989Z,70.47
2023-02-01T01:56:59.142Z,70.32
2023-02-01T01:59:27.889Z,70.35
2023-02-01T02:01:56.569Z,70.47
2023-02-01T02:04:25.480Z,70.63
2023-02-01T02:07:15.312Z,70.59
2023-02-01T02:09:54.680Z,70.50
2023-02-01T02:12:26.294Z,70.44
2023-02-01T02:14:54.491Z,70.52
2023-02-01T02:17:46.909Z,70.52
2023-02-01T02:20:33.582Z,70.52
2023-02-01T02:23:46.941Z,70.32
2023-02-01T02:26:32.955Z,70.53
2023-02-01T02:29:57.610Z,70.31
2023-02-01T02:32:46.809Z,70.38
2023-02-01T02:35:45.274Z,70.39
2023-02-01T02:38:12.927Z,70.47
2023-02-01T02:40:49.881Z,70.49
2023-02-01T02:44:06.345Z,70.37
2023-02-01T02:47:09.581Z,70.23
2023-02-01T02:50:18.615Z,70.41
2023-02-01T02:53:12.651Z,70.28
2023-02-01T02:55:42.605Z,70.44
2023-02-01T02:58:31.215Z,70.44
2023-02-01T03:01:17.808Z,70.65
2023-02-01T03:04:05.317Z,70.59
2023-02-01T03:06:34.925Z,70.58
2023-02-01T03:09:06.537Z,70.65
2023-02-01T03:11:53.537Z,70.65
2023-02-01T03:14:25.699Z,70.59
2023-02-01T03:17:01.627Z,70.79
2023-02-01T03:19:45.782Z,70.86
2023-02-01T03:22:17.132Z,70.83
2023-02-01T03:24:50.998Z,70.88
2023-02-01T03:27:39.445Z,71.08
2023-02-01T03:30:13.042Z,71.19
2023-02-01T03:33:03.111Z,71.38
2023-02-01T03:35:49.443Z,71.24
2023-02-01T03:38:25.694Z,71.22
2023-02-01T03:41:05.026Z,71.41
2023-02-01T03:43:39.564Z,71.40
2023-02-01T03:46:11.951Z,71.50
2023-02-01T03:48:41.515Z,71.87
2023-02-01T03:51:11.634Z,71.80
2023-02-01T03:53:42.292Z,71.94
2023-02-01T03:56:13.700Z,72.17
2023-02-01T03:58:42.071Z,72.66
2023-02-01T04:01:09.838Z,72.98
2023-02-01T04:03:37.593Z,72.78
2023-02-01T04:06:05.393Z,72.97
2023-02-01T04:08:33.049Z,73.18
2023-02-01T04:11:00.803Z,73.67
2023-02-01T04:13:28.473Z,73.30
2023-02-01T04:15:56.148Z,73.42
2023-02-01T04:18:23.824Z,73.75
2023-02-01T04:20:52.474Z,73.64
2023-02-01T04:23:20.245Z,73.78
2023-02-01T04:25:48.025Z,73.64
2023-02-01T04:28:15.716Z,73.59
2023-02-01T04:30:43.612Z,73.41
2023-02-01T04:33:11.429Z,73.56
2023-02-01T04:35:39.123Z,73.52
2023-02-01T04:38:06.795Z,73.45
2023-02-01T04:40:34.890Z,73.48
2023-02-01T04:43:03.470Z,73.42
2023-02-01T04:45:31.239Z,73.36
2023-02-01T04:47:59.032Z,73.35
2023-02-01T04:50:26.758Z,73.30
2023-02-01T04:52:54.468Z,73.27
2023-02-01T04:55:22.428Z,73.45
2023-02-01T04:57:50.111Z,73.36
2023-02-01T05:00:18.348Z,73.37
2023-02-01T05:02:45.975Z,73.59
2023-02-01T05:05:13.646Z,73.37
2023-02-01T05:07:41.316Z,73.40
2023-02-01T05:10:09.841Z,73.48
2023-02-01T05:12:56.103Z,73.54
2023-02-01T05:15:23.814Z,73.79
2023-02-01T05:17:51.501Z,73.57
2023-02-01T05:20:19.277Z,73.77
2023-02-01T05:22:47.175Z,73.62
2023-02-01T05:25:15.993Z,73.66
2023-02-01T05:27:44.103Z,73.67
2023-02-01T05:30:12.622Z,73.67
2023-02-01T05:32:40.254Z,73.37
2023-02-01T05:35:08.567Z,73.43
2023-02-01T05:37:36.461Z,73.30
2023-02-01T05:40:04.432Z,73.34
2023-02-01T05:42:32.138Z,73.32
2023-02-01T05:44:59.844Z,73.22
2023-02-01T05:47:27.547Z,73.48
2023-02-01T05:49:55.333Z,73.50
2023-02-01T05:52:23.010Z,73.47
2023-02-01T05:54:50.976Z,73.51
2023-02-01T05:57:18.666Z,73.46
2023-02-01T05:59:50.743Z,73.62
2023-02-01T06:02:18.838Z,73.66
2023-02-01T06:04:46.551Z,73.61
2023-02-01T06:07:14.385Z,73.63
2023-02-01T06:09:42.163Z,73.69
2023-02-01T06:12:10.330Z,73.78
2023-02-01T06:14:39.238Z,73.85
2023-02-01T06:17:08.420Z,73.80
2023-02-01T06:19:36.099Z,73.87
2023-02-01T06:22:03.852Z,73.86
2023-02-01T06:24:31.636Z,74.13
2023-02-01T06:26:59.293Z,74.04
2023-02-01T06:29:28.670Z,74.14
2023-02-01T06:31:56.502Z,74.18
2023-02-01T06:34:25.131Z,74.26
2023-02-01T06:36:53.087Z,74.48
2023-02-01T06:39:20.969Z,74.40
2023-02-01T06:41:52.288Z,74.29
2023-02-01T06:44:20.018Z,74.29
2023-02-01T06:46:47.842Z,74.08
2023-02-01T06:49:15.631Z,74.09
2023-02-01T06:51:43.415Z,74.03
2023-02-01T06:54:11.298Z,73.68
2023-02-01T06:56:39.150Z,73.81
2023-02-01T06:59:07.946Z,73.65
2023-02-01T07:01:36.579Z,73.73
2023-02-01T07:04:04.995Z,73.57
2023-02-01T07:06:33.025Z,73.66
2023-02-01T07:09:02.633Z,74.29
2023-02-01T07:11:30.433Z,76.07
2023-02-01T07:13:58.387Z,77.05
2023-02-01T07:16:26.470Z,75.40
2023-02-01T07:18:55.255Z,75.98
2023-02-01T07:21:23.433Z,76.56
2023-02-01T07:23:51.150Z,76.54
2023-02-01T07:26:18.973Z,76.38
2023-02-01T07:28:46.783Z,76.53
2023-02-01T07:31:23.899Z,76.31
2023-02-01T07:33:55.052Z,76.55
2023-02-01T07:36:22.863Z,76.61
2023-02-01T07:38:50.720Z,76.38
2023-02-01T07:41:19.514Z,76.67
2023-02-01T07:43:47.660Z,77.04
2023-02-01T07:46:17.456Z,77.00
2023-02-01T07:48:45.123Z,77.23
2023-02-01T07:51:15.262Z,77.21
2023-02-01T07:53:43.721Z,77.27
2023-02-01T07:56:17.159Z,77.46
2023-02-01T07:58:45.038Z,77.64
2023-02-01T08:01:22.800Z,77.96
2023-02-01T08:03:52.660Z,78.12
2023-02-01T08:06:21.880Z,78.34
2023-02-01T08:08:51.306Z,78.46
2023-02-01T08:11:20.346Z,78.50
2023-02-01T08:13:48.535Z,78.43
2023-02-01T08:16:18.730Z,78.35
2023-02-01T08:18:47.325Z,78.93
2023-02-01T08:21:16.787Z,78.76
2023-02-01T08:23:45.209Z,78.74
2023-02-01T08:26:16.847Z,78.88
2023-02-01T08:28:47.594Z,79.27
2023-02-01T08:31:17.791Z,79.30
2023-02-01T08:33:50.154Z,79.42
2023-02-01T08:36:18.022Z,79.66
2023-02-01T08:38:45.953Z,79.58
2023-02-01T08:41:16.959Z,79.69
2023-02-01T08:43:45.288Z,79.65
2023-02-01T08:46:13.937Z,79.48
2023-02-01T08:48:42.019Z,79.93
2023-02-01T08:51:12.435Z,79.82
2023-02-01T08:53:43.310Z,79.92
2023-02-01T08:56:13.593Z,79.92
2023-02-01T08:58:41.565Z,79.75
2023-02-01T09:01:15.158Z,79.92
2023-02-01T09:03:43.284Z,79.81
2023-02-01T09:06:14.444Z,79.73
2023-02-01T09:08:42.885Z,80.24
2023-02-01T09:11:15.940Z,79.78
2023-02-01T09:13:43.869Z,79.79
2023-02-01T09:16:11.915Z,79.74
2023-02-01T09:18:50.339Z,79.81
2023-02-01T09:21:27.439Z,79.91
2023-02-01T09:23:55.194Z,79.65
2023-02-01T09:26:31.341Z,80.20
2023-02-01T09:28:59.769Z,79.94
2023-02-01T09:31:27.666Z,79.86
2023-02-01T09:33:55.470Z,79.84
2023-02-01T09:36:23.203Z,79.79
2023-02-01T09:38:53.141Z,79.79
2023-02-01T09:41:57.328Z,79.74
2023-02-01T09:44:44.149Z,79.77
2023-02-01T09:47:15.665Z,79.61
2023-02-01T09:49:59.470Z,79.55
2023-02-01T09:52:36.764Z,79.12
2023-02-01T09:55:20.789Z,78.77
2023-02-01T09:58:00.488Z,78.66
2023-02-01T10:00:32.334Z,78.26
2023-02-01T10:03:00.134Z,77.81
2023-02-01T10:05:40.661Z,77.40
2023-02-01T10:08:47.383Z,77.18
2023-02-01T10:11:23.983Z,76.92
2023-02-01T10:14:03.020Z,76.96
2023-02-01T10:16:47.921Z,76.81
2023-02-01T10:19:24.557Z,76.66
2023-02-01T10:22:04.680Z,76.73
2023-02-01T10:24:59.273Z,76.66
2023-02-01T10:27:37.550Z,76.22
2023-02-01T10:30:34.671Z,75.82
2023-02-01T10:33:34.376Z,75.78
2023-02-01T10:36:24.059Z,75.41
2023-02-01T10:38:51.986Z,75.26
2023-02-01T10:41:25.437Z,75.06
2023-02-01T10:43:57.049Z,75.12
2023-02-01T10:46:26.054Z,75.23
2023-02-01T10:48:58.533Z,75.66
2023-02-01T10:51:35.312Z,75.11
2023-02-01T10:54:11.717Z,75.13
2023-02-01T10:56:40.699Z,74.35
2023-02-01T10:59:18.264Z,73.57
2023-02-01T11:01:49.314Z,73.54
2023-02-01T11:04:21.065Z,73.34
2023-02-01T11:06:53.013Z,73.27
2023-02-01T11:09:23.814Z,71.81
2023-02-01T11:11:51.551Z,72.32
2023-02-01T11:14:28.108Z,72.54
2023-02-01T11:17:16.133Z,71.57
2023-02-01T11:19:59.011Z,70.31
2023-02-01T11:22:29.169Z,70.01
2023-02-01T11:24:57.310Z,69.88
2023-02-01T11:27:28.138Z,69.10
2023-02-01T11:30:03.702Z,68.15
2023-02-01T11:32:32.722Z,68.36
2023-02-01T11:35:09.711Z,67.91
2023-02-01T11:37:45.017Z,67.27
2023-02-01T11:40:18.513Z,67.87
2023-02-01T11:42:56.939Z,66.68
2023-02-01T11:45:33.652Z,66.67
2023-02-01T11:48:02.612Z,66.21
2023-02-01T11:50:57.892Z,66.57
2023-02-01T11:54:02.548Z,65.25
2023-02-01T11:56:42.568Z,65.49
2023-02-01T11:59:15.896Z,64.81
2023-02-01T12:02:09.957Z,64.94
2023-02-01T12:04:57.241Z,65.23
2023-02-01T12:07:31.529Z,65.37
2023-02-01T12:10:17.597Z,64.71
2023-02-01T12:13:08.411Z,65.26
2023-02-01T12:15:54.794Z,64.56
2023-02-01T12:18:44.088Z,64.25
2023-02-01T12:21:34.954Z,64.91
2023-02-01T12:24:05.634Z,64.61
2023-02-01T12:26:48.882Z,65.29
2023-02-01T12:29:25.527Z,65.34
2023-02-01T12:32:02.177Z,64.10
2023-02-01T12:34:40.838Z,64.16
2023-02-01T12:37:33.215Z,64.13
2023-02-01T12:40:10.013Z,64.07
2023-02-01T12:43:04.186Z,64.46
2023-02-01T12:45:51.607Z,64.83
2023-02-01T12:48:43.733Z,63.61
2023-02-01T12:51:19.681Z,63.77
2023-02-01T12:53:56.645Z,63.98
2023-02-01T12:56:37.376Z,64.43
2023-02-01T12:59:23.020Z,64.25
2023-02-01T13:02:00.941Z,64.63
2023-02-01T13:04:36.085Z,64.86
2023-02-01T13:07:12.001Z,65.16
2023-02-01T13:09:56.491Z,65.15
2023-02-01T13:13:02.623Z,65.40
2023-02-01T13:15:35.542Z,65.57
2023-02-01T13:18:07.382Z,65.60
2023-02-01T13:20:57.747Z,65.86
2023-02-01T13:23:32.694Z,66.53
2023-02-01T13:26:00.890Z,68.08
2023-02-01T13:28:44.861Z,68.72
2023-02-01T13:31:46.086Z,69.07
2023-02-01T13:34:44.596Z,68.53
2023-02-01T13:37:31.386Z,67.18
2023-02-01T13:40:14.345Z,66.63
2023-02-01T13:42:58.431Z,65.29
2023-02-01T13:45:31.400Z,64.38
2023-02-01T13:48:03.924Z,63.99
2023-02-01T13:50:43.704Z,63.70
2023-02-01T13:53:16.744Z,62.83
2023-02-01T13:55:58.465Z,63.19
2023-02-01T13:58:38.420Z,62.12
2023-02-01T14:01:24.374Z,62.31
2023-02-01T14:03:54.490Z,62.21
2023-02-01T14:06:28.344Z,62.28
2023-02-01T14:09:14.689Z,62.32
2023-02-01T14:11:44.694Z,62.33
2023-02-01T14:14:35.417Z,62.74
2023-02-01T14:17:03.106Z,63.14
2023-02-01T14:19:33.808Z,62.88
2023-02-01T14:22:22.977Z,62.98
2023-02-01T14:24:56.238Z,62.75
2023-02-01T14:27:27.510Z,62.90
2023-02-01T14:30:09.886Z,61.82
2023-02-01T14:32:41.259Z,61.96
2023-02-01T14:35:20.091Z,60.80
2023-02-01T14:37:52.372Z,60.46
2023-02-01T14:40:27.142Z,60.27
2023-02-01T14:42:56.572Z,60.56
2023-02-01T14:45:24.978Z,59.82
2023-02-01T14:48:08.235Z,60.13
2023-02-01T14:50:42.632Z,60.18
2023-02-01T14:53:22.480Z,59.98
2023-02-01T14:56:15.389Z,59.91
2023-02-01T14:58:49.857Z,59.76
2023-02-01T15:01:39.850Z,60.11
2023-02-01T15:04:17.249Z,60.40
2023-02-01T15:06:54.455Z,60.14
2023-02-01T15:09:23.799Z,60.31
2023-02-01T15:11:57.457Z,60.43
2023-02-01T15:14:25.472Z,60.09
2023-02-01T15:16:55.905Z,60.55
2023-02-01T15:19:28.299Z,60.55
2023-02-01T15:21:59.365Z,60.38
2023-02-01T15:24:32.334Z,60.43
2023-02-01T15:27:06.813Z,60.65
2023-02-01T15:29:35.396Z,60.91
2023-02-01T15:32:03.370Z,61.39
2023-02-01T15:34:49.913Z,61.62
2023-02-01T15:37:20.574Z,61.80
2023-02-01T15:40:14.072Z,62.00
2023-02-01T15:42:58.832Z,62.26
2023-02-01T15:45:34.432Z,62.19
2023-02-01T15:48:02.364Z,62.04
2023-02-01T15:50:33.261Z,62.04
2023-02-01T15:53:01.207Z,62.13
2023-02-01T15:55:37.754Z,62.28
2023-02-01T15:58:18.995Z,62.54
2023-02-01T16:01:09.010Z,62.68
2023-02-01T16:03:40.243Z,62.99
2023-02-01T16:06:14.532Z,63.17
2023-02-01T16:08:53.695Z,63.19
2023-02-01T16:11:32.639Z,62.56
2023-02-01T16:14:02.068Z,62.43
2023-02-01T16:16:31.506Z,62.52
2023-02-01T16:18:59.249Z,62.33
2023-02-01T16:21:27.025Z,62.18
2023-02-01T16:23:55.447Z,62.22
2023-02-01T16:26:23.385Z,61.55
2023-02-01T16:28:51.142Z,61.75
2023-02-01T16:31:23.726Z,61.47
2023-02-01T16:33:52.641Z,61.20
2023-02-01T16:36:20.894Z,61.23
2023-02-01T16:38:50.027Z,61.22
2023-02-01T16:41:19.849Z,61.38
2023-02-01T16:43:47.919Z,60.93
2023-02-01T16:46:22.719Z,61.14
2023-02-01T16:48:56.502Z,61.16
2023-02-01T16:51:26.898Z,61.38
2023-02-01T16:53:55.429Z,61.62
2023-02-01T16:56:38.260Z,61.58
2023-02-01T16:59:06.054Z,61.58
2023-02-01T17:01:33.813Z,61.72
2023-02-01T17:04:01.666Z,61.84
2023-02-01T17:06:29.973Z,61.69
2023-02-01T17:09:04.482Z,61.92
2023-02-01T17:11:32.985Z,62.02
2023-02-01T17:14:17.588Z,62.13
2023-02-01T17:16:47.983Z,62.10
2023-02-01T17:19:19.476Z,62.17
2023-02-01T17:21:54.056Z,62.50
2023-02-01T17:24:35.785Z,62.50
2023-02-01T17:27:06.855Z,62.38
2023-02-01T17:29:35.122Z,62.37
2023-02-01T17:32:06.456Z,62.39
2023-02-01T17:34:34.404Z,62.36
2023-02-01T17:37:02.511Z,62.55
2023-02-01T17:39:48.818Z,62.59
2023-02-01T17:42:16.822Z,62.58
2023-02-01T17:44:44.550Z,62.59
2023-02-01T17:47:12.365Z,62.63
2023-02-01T17:49:40.190Z,62.66
2023-02-01T17:52:10.384Z,62.61
2023-02-01T17:54:38.535Z,62.40
2023-02-01T17:57:13.636Z,62.44
2023-02-01T17:59:41.773Z,62.31
2023-02-01T18:02:23.585Z,62.50
2023-02-01T18:04:52.252Z,62.31
2023-02-01T18:07:20.137Z,62.36
2023-02-01T18:09:48.035Z,62.47
2023-02-01T18:12:24.639Z,62.28
2023-02-01T18:14:52.669Z,62.17
2023-02-01T18:17:21.447Z,62.14
2023-02-01T18:19:49.493Z,61.97
2023-02-01T18:22:20.198Z,62.07
2023-02-01T18:24:48.162Z,62.17
2023-02-01T18:27:16.140Z,62.21
2023-02-01T18:29:43.990Z,62.10
2023-02-01T18:32:12.095Z,62.16
2023-02-01T18:34:40.341Z,61.99
2023-02-01T18:37:08.194Z,61.97
2023-02-01T18:39:35.855Z,61.99
2023-02-01T18:42:03.620Z,62.16
2023-02-01T18:44:31.263Z,62.32
2023-02-01T18:47:00.097Z,62.05
2023-02-01T18:49:27.882Z,62.14
2023-02-01T18:51:55.556Z,62.18
2023-02-01T18:54:25.752Z,62.45
2023-02-01T18:56:53.547Z,62.24
2023-02-01T18:59:21.276Z,62.53
2023-02-01T19:01:49.156Z,62.45
2023-02-01T19:04:18.243Z,62.51
2023-02-01T19:06:53.915Z,62.65
2023-02-01T19:09:21.709Z,62.61
2023-02-01T19:11:49.484Z,62.60
2023-02-01T19:14:18.043Z,62.63
2023-02-01T19:16:45.810Z,62.59
2023-02-01T19:19:13.698Z,62.57
2023-02-01T19:21:41.385Z,62.74
2023-02-01T19:24:09.264Z,62.73
2023-02-01T19:26:37.018Z,62.74
2023-02-01T19:29:05.601Z,62.70
2023-02-01T19:31:33.598Z,62.79
2023-02-01T19:34:01.385Z,62.92
2023-02-01T19:36:29.679Z,63.04
2023-02-01T19:38:57.494Z,63.09
2023-02-01T19:41:25.160Z,63.04
2023-02-01T19:43:52.885Z,63.19
2023-02-01T19:46:20.747Z,63.37
2023-02-01T19:48:48.920Z,63.22
2023-02-01T19:51:16.813Z,63.27
2023-02-01T19:53:45.427Z,63.33
2023-02-01T19:56:16.235Z,63.22
2023-02-01T19:58:45.015Z,63.42
2023-02-01T20:01:12.782Z,63.60
2023-02-01T20:03:40.524Z,63.65
2023-02-01T20:06:08.535Z,63.73
2023-02-01T20:08:36.634Z,63.99
2023-02-01T20:11:08.078Z,63.97
2023-02-01T20:13:36.941Z,64.18
2023-02-01T20:16:05.124Z,64.24
2023-02-01T20:18:32.983Z,64.29
2023-02-01T20:21:00.842Z,64.38
2023-02-01T20:23:28.918Z,64.48
2023-02-01T20:26:02.944Z,64.57
2023-02-01T20:28:31.227Z,64.64
2023-02-01T20:30:59.597Z,64.58
2023-02-01T20:33:31.435Z,64.69
2023-02-01T20:35:59.606Z,64.58
2023-02-01T20:38:27.595Z,64.60
2023-02-01T20:41:03.706Z,64.44
2023-02-01T20:43:31.419Z,64.39
2023-02-01T20:45:59.282Z,64.39
2023-02-01T20:48:27.368Z,64.32
2023-02-01T20:50:56.477Z,64.35
2023-02-01T20:53:26.931Z,64.36
2023-02-01T20:56:01.522Z,64.23
2023-02-01T20:58:29.368Z,64.14
2023-02-01T21:00:57.315Z,64.09
2023-02-01T21:03:25.436Z,64.01
2023-02-01T21:05:56.359Z,63.86
2023-02-01T21:08:24.800Z,64.01
2023-02-01T21:11:03.244Z,64.08
2023-02-01T21:13:33.266Z,63.85
2023-02-01T21:16:01.025Z,63.75
2023-02-01T21:18:28.927Z,63.88
2023-02-01T21:20:56.831Z,63.86
2023-02-01T21:23:24.698Z,63.67
2023-02-01T21:25:52.373Z,63.57
2023-02-01T21:28:20.178Z,63.69
2023-02-01T21:30:47.904Z,63.63
2023-02-01T21:33:15.579Z,63.76
2023-02-01T21:35:43.461Z,63.83
2023-02-01T21:38:11.353Z,63.72
2023-02-01T21:40:39.127Z,63.81
2023-02-01T21:43:06.829Z,63.86
2023-02-01T21:45:34.845Z,63.94
2023-02-01T21:48:04.098Z,64.18
2023-02-01T21:50:31.822Z,64.13
2023-02-01T21:53:00.374Z,64.33
2023-02-01T21:55:28.054Z,64.62
2023-02-01T21:57:55.975Z,64.72
2023-02-01T22:00:25.048Z,64.93
2023-02-01T22:02:52.832Z,65.25
2023-02-01T22:05:20.730Z,65.20
2023-02-01T22:07:48.342Z,65.37
2023-02-01T22:10:16.002Z,65.76
2023-02-01T22:12:43.705Z,65.70
2023-02-01T22:15:11.882Z,65.89
2023-02-01T22:17:39.614Z,66.14
2023-02-01T22:20:07.754Z,66.03
2023-02-01T22:22:35.417Z,66.24
2023-02-01T22:25:03.066Z,66.36
2023-02-01T22:28:30.218Z,66.18
2023-02-01T22:30:18.903Z,66.38
2023-02-01T22:32:46.660Z,66.64
2023-02-01T22:35:14.562Z,66.59
2023-02-01T22:37:43.237Z,66.68
2023-02-01T22:40:12.308Z,66.83
2023-02-01T22:42:40.066Z,66.70
2023-02-01T22:45:08.423Z,66.81
2023-02-01T22:47:36.183Z,66.83
2023-02-01T22:50:03.894Z,67.01
2023-02-01T22:52:31.907Z,67.12
2023-02-01T22:54:59.620Z,67.09
2023-02-01T22:57:27.431Z,67.08
2023-02-01T22:59:55.153Z,67.12
2023-02-01T23:02:22.998Z,67.09
2023-02-01T23:04:50.724Z,67.15
2023-02-01T23:07:18.479Z,67.20
2023-02-01T23:09:46.179Z,67.34
2023-02-01T23:12:13.795Z,67.36
2023-02-01T23:15:01.427Z,67.50
2023-02-01T23:17:29.432Z,67.52
2023-02-01T23:19:57.322Z,67.53
2023-02-01T23:22:25.074Z,67.58
2023-02-01T23:24:52.771Z,67.60
2023-02-01T23:27:20.486Z,67.70
2023-02-01T23:29:48.230Z,67.86
2023-02-01T23:32:18.261Z,67.79
2023-02-01T23:34:46.030Z,67.78
2023-02-01T23:37:13.821Z,67.63
2023-02-01T23:39:41.640Z,67.72
2023-02-01T23:42:09.341Z,67.86
2023-02-01T23:44:37.106Z,68.00
2023-02-01T23:47:05.017Z,67.97
2023-02-01T23:49:32.719Z,68.06
2023-02-01T23:52:00.449Z,67.94
2023-02-01T23:54:28.090Z,68.04
2023-02-01T23:56:58.369Z,68.08
2023-02-01T23:59:27.722Z,68.03
